createdAt,value
2022-09-12T00:01:22.532Z,75.14
2022-09-12T00:03:54.140Z,75.38
2022-09-12T00:06:26.001Z,75.69
2022-09-12T00:08:57.418Z,75.80
2022-09-12T00:11:24.745Z,75.93
2022-09-12T00:13:52.393Z,76.11
2022-09-12T00:16:26.120Z,76.45
2022-09-12T00:18:53.938Z,76.81
2022-09-12T00:21:22.386Z,76.84
2022-09-12T00:23:50.727Z,77.09
2022-09-12T00:26:19.552Z,77.59
2022-09-12T00:28:46.978Z,77.49
2022-09-12T00:31:18.478Z,77.71
2022-09-12T00:33:45.983Z,78.36
2022-09-12T00:36:17.338Z,78.76
2022-09-12T00:38:45.713Z,79.40
2022-09-12T00:41:21.575Z,79.19
2022-09-12T00:43:57.008Z,79.58
2022-09-12T00:46:36.354Z,79.91
2022-09-12T00:49:13.175Z,80.22
2022-09-12T00:51:45.903Z,80.43
2022-09-12T00:54:18.867Z,80.50
2022-09-12T00:56:47.304Z,81.10
2022-09-12T00:59:21.508Z,80.87
2022-09-12T01:01:52.115Z,81.44
2022-09-12T01:04:22.627Z,81.64
2022-09-12T01:06:50.852Z,81.78
2022-09-12T01:09:22.527Z,81.79
2022-09-12T01:11:52.234Z,81.90
2022-09-12T01:14:20.369Z,82.39
2022-09-12T01:16:49.094Z,82.46
2022-09-12T01:19:53.186Z,82.68
2022-09-12T01:22:50.863Z,82.43
2022-09-12T01:26:14.553Z,82.52
2022-09-12T01:29:03.035Z,82.29
2022-09-12T01:31:42.489Z,82.77
2022-09-12T01:34:12.272Z,82.55
2022-09-12T01:37:05.339Z,83.18
2022-09-12T01:39:51.682Z,82.69
2022-09-12T01:42:30.762Z,82.85
2022-09-12T01:45:14.746Z,82.79
2022-09-12T01:47:50.764Z,82.89
2022-09-12T01:50:27.829Z,83.09
2022-09-12T01:53:07.088Z,82.84
2022-09-12T01:55:44.505Z,82.92
2022-09-12T01:58:21.724Z,83.05
2022-09-12T02:01:10.393Z,83.00
2022-09-12T02:03:48.245Z,83.18
2022-09-12T02:06:27.738Z,83.36
2022-09-12T02:09:04.300Z,83.70
2022-09-12T02:11:35.919Z,83.57
2022-09-12T02:14:12.523Z,83.52
2022-09-12T02:16:52.603Z,83.36
2022-09-12T02:19:25.779Z,83.75
2022-09-12T02:21:56.952Z,83.74
2022-09-12T02:24:30.323Z,83.65
2022-09-12T02:27:07.219Z,83.81
2022-09-12T02:29:34.040Z,83.88
2022-09-12T02:32:21.342Z,83.93
2022-09-12T02:35:16.069Z,84.19
2022-09-12T02:38:00.261Z,84.24
2022-09-12T02:40:28.229Z,84.27
2022-09-12T02:42:55.388Z,84.13
2022-09-12T02:45:23.465Z,84.32
2022-09-12T02:48:00.535Z,84.49
2022-09-12T02:50:28.472Z,84.04
2022-09-12T02:52:59.829Z,84.34
2022-09-12T02:55:30.700Z,84.81
2022-09-12T02:57:57.567Z,85.00
2022-09-12T03:00:25.489Z,84.63
2022-09-12T03:03:07.408Z,84.53
2022-09-12T03:05:44.042Z,84.89
2022-09-12T03:08:57.077Z,84.60
2022-09-12T03:12:12.023Z,84.40
2022-09-12T03:14:54.580Z,84.43
2022-09-12T03:17:49.026Z,84.19
2022-09-12T03:20:39.427Z,84.30
2022-09-12T03:23:20.461Z,84.35
2022-09-12T03:25:59.369Z,84.16
2022-09-12T03:28:27.296Z,84.35
2022-09-12T03:30:56.609Z,84.47
2022-09-12T03:33:25.872Z,84.59
2022-09-12T03:35:53.778Z,84.88
2022-09-12T03:38:20.704Z,84.47
2022-09-12T03:40:51.395Z,84.66
2022-09-12T03:43:20.952Z,84.46
2022-09-12T03:45:52.471Z,84.54
2022-09-12T03:48:19.633Z,84.78
2022-09-12T03:50:46.461Z,84.69
2022-09-12T03:53:17.070Z,84.34
2022-09-12T03:55:44.685Z,84.35
2022-09-12T03:58:11.836Z,84.58
2022-09-12T04:00:39.847Z,84.65
2022-09-12T04:03:06.690Z,84.34
2022-09-12T04:05:33.471Z,84.52
2022-09-12T04:08:00.220Z,84.56
2022-09-12T04:10:27.044Z,84.55
2022-09-12T04:12:53.832Z,84.39
2022-09-12T04:15:20.726Z,84.42
2022-09-12T04:17:47.672Z,84.73
2022-09-12T04:20:14.891Z,84.51
2022-09-12T04:22:41.700Z,84.53
2022-09-12T04:25:09.709Z,84.59
2022-09-12T04:27:36.485Z,84.51
2022-09-12T04:30:04.901Z,84.43
2022-09-12T04:32:31.905Z,84.49
2022-09-12T04:34:58.772Z,84.56
2022-09-12T04:37:25.563Z,84.43
2022-09-12T04:39:57.763Z,84.56
2022-09-12T04:42:24.882Z,84.51
2022-09-12T04:44:52.257Z,84.44
2022-09-12T04:47:19.219Z,84.61
2022-09-12T04:49:45.974Z,84.65
2022-09-12T04:52:12.722Z,84.60
2022-09-12T04:54:40.400Z,84.69
2022-09-12T04:57:07.242Z,84.93
2022-09-12T04:59:34.099Z,84.59
2022-09-12T05:02:00.965Z,84.96
2022-09-12T05:04:27.945Z,84.74
2022-09-12T05:06:54.811Z,84.75
2022-09-12T05:09:21.535Z,84.59
2022-09-12T05:12:05.254Z,84.83
2022-09-12T05:14:33.954Z,84.76
2022-09-12T05:17:02.225Z,84.60
2022-09-12T05:19:31.228Z,84.91
2022-09-12T05:21:59.129Z,84.86
2022-09-12T05:24:26.394Z,84.92
2022-09-12T05:26:53.343Z,84.75
2022-09-12T05:29:20.211Z,84.60
2022-09-12T05:31:48.505Z,84.95
2022-09-12T05:34:15.515Z,84.61
2022-09-12T05:36:42.361Z,85.04
2022-09-12T05:39:09.115Z,85.04
2022-09-12T05:41:37.410Z,85.00
2022-09-12T05:44:07.308Z,85.06
2022-09-12T05:46:40.702Z,84.88
2022-09-12T05:49:11.474Z,84.97
2022-09-12T05:51:41.862Z,85.07
2022-09-12T05:54:12.482Z,84.88
2022-09-12T05:56:44.604Z,84.99
2022-09-12T05:59:18.736Z,85.05
2022-09-12T06:01:46.101Z,84.85
2022-09-12T06:04:13.395Z,84.73
2022-09-12T06:06:45.174Z,84.74
2022-09-12T06:09:14.618Z,84.73
2022-09-12T06:11:41.584Z,84.69
2022-09-12T06:14:11.667Z,84.64
2022-09-12T06:16:39.266Z,85.05
2022-09-12T06:19:19.114Z,84.66
2022-09-12T06:21:48.639Z,84.78
2022-09-12T06:24:17.895Z,84.71
2022-09-12T06:26:45.623Z,84.71
2022-09-12T06:29:13.340Z,84.85
2022-09-12T06:31:42.450Z,84.81
2022-09-12T06:34:13.586Z,84.74
2022-09-12T06:36:43.668Z,84.89
2022-09-12T06:39:17.025Z,84.96
2022-09-12T06:41:45.140Z,84.86
2022-09-12T06:44:21.503Z,84.85
2022-09-12T06:46:49.009Z,84.83
2022-09-12T06:49:15.952Z,84.65
2022-09-12T06:51:43.385Z,84.90
2022-09-12T06:54:14.671Z,84.58
2022-09-12T06:56:41.703Z,84.88
2022-09-12T06:59:08.749Z,84.78
2022-09-12T07:01:35.596Z,84.77
2022-09-12T07:04:04.516Z,84.72
2022-09-12T07:06:41.072Z,84.65
2022-09-12T07:09:13.153Z,84.62
2022-09-12T07:11:41.990Z,84.54
2022-09-12T07:14:13.071Z,84.56
2022-09-12T07:16:40.312Z,84.20
2022-09-12T07:19:08.672Z,84.05
2022-09-12T07:21:40.650Z,84.00
2022-09-12T07:24:10.521Z,83.90
2022-09-12T07:26:39.024Z,83.86
2022-09-12T07:29:34.851Z,83.96
2022-09-12T07:31:52.623Z,83.56
2022-09-12T07:34:19.406Z,83.58
2022-09-12T07:36:46.424Z,83.49
2022-09-12T07:39:13.199Z,83.50
2022-09-12T07:41:40.296Z,83.26
2022-09-12T07:44:07.728Z,83.20
2022-09-12T07:46:35.328Z,83.26
2022-09-12T07:49:03.102Z,83.06
2022-09-12T07:51:31.770Z,82.88
2022-09-12T07:53:58.894Z,82.47
2022-09-12T07:56:32.698Z,82.56
2022-09-12T07:59:01.496Z,82.35
2022-09-12T08:01:28.304Z,82.34
2022-09-12T08:04:00.385Z,82.35
2022-09-12T08:06:32.246Z,82.10
2022-09-12T08:09:00.157Z,81.77
2022-09-12T08:11:29.423Z,82.05
2022-09-12T08:13:58.179Z,81.77
2022-09-12T08:16:28.760Z,81.24
2022-09-12T08:18:55.820Z,80.68
2022-09-12T08:21:26.054Z,80.42
2022-09-12T08:23:56.471Z,79.77
2022-09-12T08:26:24.627Z,78.58
2022-09-12T08:28:51.810Z,78.17
2022-09-12T08:31:21.856Z,77.11
2022-09-12T08:33:48.712Z,76.16
2022-09-12T08:36:21.505Z,75.20
2022-09-12T08:38:53.681Z,75.01
2022-09-12T08:41:46.792Z,72.64
2022-09-12T08:44:47.117Z,72.13
2022-09-12T08:47:33.753Z,71.53
2022-09-12T08:50:12.197Z,69.42
2022-09-12T08:53:04.255Z,68.40
2022-09-12T08:55:44.888Z,68.70
2022-09-12T08:58:13.258Z,68.51
2022-09-12T09:01:08.945Z,68.21
2022-09-12T09:04:01.856Z,68.63
2022-09-12T09:07:05.820Z,68.49
2022-09-12T09:09:57.268Z,68.52
2022-09-12T09:12:34.603Z,66.51
2022-09-12T09:15:24.931Z,67.73
2022-09-12T09:18:00.674Z,67.15
2022-09-12T09:20:36.763Z,66.47
2022-09-12T09:23:32.090Z,66.16
2022-09-12T09:26:22.570Z,66.79
2022-09-12T09:28:55.773Z,65.59
2022-09-12T09:31:26.637Z,66.03
2022-09-12T09:33:55.566Z,66.58
2022-09-12T09:36:47.093Z,67.20
2022-09-12T09:39:45.137Z,67.60
2022-09-12T09:42:25.038Z,67.48
2022-09-12T09:44:54.528Z,66.80
2022-09-12T09:47:21.583Z,66.49
2022-09-12T09:49:48.344Z,66.44
2022-09-12T09:52:25.164Z,66.21
2022-09-12T09:55:01.949Z,63.65
2022-09-12T09:57:41.387Z,64.92
2022-09-12T10:00:37.964Z,64.50
2022-09-12T10:03:13.813Z,64.22
2022-09-12T10:05:55.607Z,64.24
2022-09-12T10:08:41.292Z,63.54
2022-09-12T10:11:23.475Z,62.97
2022-09-12T10:14:00.112Z,63.57
2022-09-12T10:16:52.848Z,63.41
2022-09-12T10:19:34.177Z,63.36
2022-09-12T10:22:02.412Z,62.76
2022-09-12T10:24:43.710Z,63.39
2022-09-12T10:27:21.043Z,63.70
2022-09-12T10:29:54.799Z,63.21
2022-09-12T10:32:31.152Z,62.86
2022-09-12T10:35:05.946Z,62.98
2022-09-12T10:37:42.345Z,62.31
2022-09-12T10:40:25.458Z,63.09
2022-09-12T10:42:56.469Z,63.85
2022-09-12T10:45:36.695Z,63.73
2022-09-12T10:48:35.763Z,64.32
2022-09-12T10:51:02.966Z,64.32
2022-09-12T10:53:40.968Z,64.57
2022-09-12T10:56:24.170Z,64.62
2022-09-12T10:59:14.698Z,65.16
2022-09-12T11:01:58.059Z,64.93
2022-09-12T11:05:00.307Z,65.28
2022-09-12T11:07:44.205Z,65.46
2022-09-12T11:10:45.660Z,65.72
2022-09-12T11:14:12.772Z,66.19
2022-09-12T11:17:01.109Z,65.98
2022-09-12T11:19:39.703Z,66.29
2022-09-12T11:22:34.247Z,66.81
2022-09-12T11:25:23.058Z,66.62
2022-09-12T11:28:06.234Z,66.80
2022-09-12T11:31:29.685Z,66.94
2022-09-12T11:33:58.999Z,67.60
2022-09-12T11:37:09.888Z,67.95
2022-09-12T11:39:44.060Z,68.45
2022-09-12T11:42:20.878Z,68.86
2022-09-12T11:45:06.291Z,69.58
2022-09-12T11:47:35.556Z,70.01
2022-09-12T11:50:16.298Z,70.17
2022-09-12T11:52:43.249Z,70.96
2022-09-12T11:55:20.230Z,71.63
2022-09-12T11:57:56.856Z,72.57
2022-09-12T12:00:44.436Z,72.77
2022-09-12T12:03:27.625Z,73.03
2022-09-12T12:06:19.816Z,73.64
2022-09-12T12:08:48.947Z,73.61
2022-09-12T12:11:32.776Z,74.06
2022-09-12T12:14:07.194Z,74.44
2022-09-12T12:16:39.148Z,74.47
2022-09-12T12:19:15.131Z,74.85
2022-09-12T12:21:50.260Z,75.24
2022-09-12T12:24:29.096Z,77.64
2022-09-12T12:27:05.712Z,75.73
2022-09-12T12:29:35.352Z,76.18
2022-09-12T12:32:05.821Z,76.49
2022-09-12T12:34:40.383Z,77.08
2022-09-12T12:37:19.252Z,78.40
2022-09-12T12:39:46.984Z,77.40
2022-09-12T12:42:35.638Z,77.50
2022-09-12T12:45:20.539Z,77.84
2022-09-12T12:48:11.462Z,78.20
2022-09-12T12:50:38.380Z,77.73
2022-09-12T12:53:19.713Z,78.10
2022-09-12T12:55:52.370Z,77.82
2022-09-12T12:58:39.671Z,78.80
2022-09-12T13:01:23.082Z,78.22
2022-09-12T13:04:12.994Z,78.47
2022-09-12T13:06:47.214Z,77.85
2022-09-12T13:09:31.646Z,77.95
2022-09-12T13:12:04.586Z,77.58
2022-09-12T13:14:43.829Z,77.13
2022-09-12T13:17:28.896Z,77.07
2022-09-12T13:20:28.388Z,76.92
2022-09-12T13:22:56.912Z,76.66
2022-09-12T13:25:35.495Z,76.17
2022-09-12T13:28:11.519Z,75.72
2022-09-12T13:30:46.377Z,75.26
2022-09-12T13:33:36.912Z,74.90
2022-09-12T13:36:19.106Z,74.85
2022-09-12T13:39:30.099Z,74.49
2022-09-12T13:42:41.156Z,75.44
2022-09-12T13:45:22.939Z,74.39
2022-09-12T13:48:04.597Z,74.11
2022-09-12T13:50:40.907Z,74.44
2022-09-12T13:53:17.065Z,74.25
2022-09-12T13:55:50.362Z,74.56
2022-09-12T13:58:24.839Z,74.20
2022-09-12T14:01:10.271Z,74.70
2022-09-12T14:04:13.858Z,74.99
2022-09-12T14:06:46.739Z,75.23
2022-09-12T14:09:20.721Z,75.34
2022-09-12T14:11:52.228Z,75.47
2022-09-12T14:14:31.515Z,75.79
2022-09-12T14:17:01.287Z,75.74
2022-09-12T14:19:29.417Z,75.97
2022-09-12T14:22:02.464Z,75.61
2022-09-12T14:24:32.084Z,75.90
2022-09-12T14:26:59.480Z,75.56
2022-09-12T14:29:27.170Z,75.44
2022-09-12T14:32:05.868Z,75.12
2022-09-12T14:34:32.769Z,75.02
2022-09-12T14:37:00.023Z,73.46
2022-09-12T14:39:33.876Z,73.11
2022-09-12T14:42:11.607Z,73.25
2022-09-12T14:44:39.599Z,73.46
2022-09-12T14:47:25.098Z,73.23
2022-09-12T14:49:51.982Z,73.10
2022-09-12T14:52:30.433Z,73.21
2022-09-12T14:55:02.483Z,73.10
2022-09-12T14:57:40.783Z,72.16
2022-09-12T15:00:22.851Z,72.96
2022-09-12T15:02:51.948Z,72.15
2022-09-12T15:05:26.670Z,72.69
2022-09-12T15:08:01.019Z,72.70
2022-09-12T15:10:36.341Z,72.42
2022-09-12T15:13:05.889Z,72.13
2022-09-12T15:15:33.078Z,72.44
2022-09-12T15:18:02.373Z,72.35
2022-09-12T15:20:44.390Z,72.33
2022-09-12T15:23:31.481Z,72.05
2022-09-12T15:25:58.529Z,71.98
2022-09-12T15:28:26.969Z,72.53
2022-09-12T15:30:56.224Z,72.16
2022-09-12T15:33:25.254Z,72.16
2022-09-12T15:35:53.232Z,71.97
2022-09-12T15:38:25.633Z,71.34
2022-09-12T15:40:54.161Z,71.19
2022-09-12T15:43:22.980Z,70.74
2022-09-12T15:45:52.382Z,70.59
2022-09-12T15:48:21.167Z,70.55
2022-09-12T15:50:48.626Z,70.19
2022-09-12T15:53:17.103Z,70.87
2022-09-12T15:55:44.920Z,70.33
2022-09-12T15:58:12.192Z,70.49
2022-09-12T16:00:39.184Z,70.46
2022-09-12T16:03:06.752Z,70.02
2022-09-12T16:05:33.642Z,70.36
2022-09-12T16:08:00.503Z,70.73
2022-09-12T16:10:30.514Z,70.89
2022-09-12T16:12:58.226Z,71.21
2022-09-12T16:15:26.219Z,71.19
2022-09-12T16:17:53.515Z,71.56
2022-09-12T16:20:21.704Z,71.95
2022-09-12T16:22:48.932Z,72.04
2022-09-12T16:25:17.540Z,71.94
2022-09-12T16:27:44.967Z,71.85
2022-09-12T16:30:13.195Z,72.24
2022-09-12T16:32:40.322Z,72.45
2022-09-12T16:35:08.127Z,72.67
2022-09-12T16:37:35.094Z,72.73
2022-09-12T16:40:06.186Z,72.60
2022-09-12T16:42:33.015Z,72.95
2022-09-12T16:45:00.137Z,73.12
2022-09-12T16:47:27.107Z,73.20
2022-09-12T16:49:53.891Z,73.36
2022-09-12T16:52:20.690Z,73.22
2022-09-12T16:54:47.519Z,73.38
2022-09-12T16:57:14.378Z,73.15
2022-09-12T16:59:41.722Z,73.33
2022-09-12T17:02:14.182Z,73.17
2022-09-12T17:04:41.794Z,73.35
2022-09-12T17:07:10.169Z,73.49
2022-09-12T17:09:36.935Z,73.33
2022-09-12T17:12:04.216Z,73.72
2022-09-12T17:14:30.995Z,73.71
2022-09-12T17:16:57.817Z,74.25
2022-09-12T17:19:28.245Z,74.17
2022-09-12T17:21:56.381Z,74.28
2022-09-12T17:24:23.861Z,74.50
2022-09-12T17:26:51.627Z,74.93
2022-09-12T17:29:18.392Z,74.36
2022-09-12T17:31:45.980Z,74.64
2022-09-12T17:34:14.716Z,74.50
2022-09-12T17:36:46.344Z,74.50
2022-09-12T17:39:15.159Z,74.75
2022-09-12T17:41:42.981Z,74.24
2022-09-12T17:44:13.915Z,74.35
2022-09-12T17:46:41.420Z,74.56
2022-09-12T17:49:14.334Z,74.56
2022-09-12T17:51:42.080Z,74.80
2022-09-12T17:54:14.472Z,74.82
2022-09-12T17:56:42.944Z,75.01
2022-09-12T17:59:19.080Z,74.76
2022-09-12T18:02:05.450Z,74.45
2022-09-12T18:04:32.623Z,74.38
2022-09-12T18:07:00.594Z,74.43
2022-09-12T18:09:28.599Z,74.58
2022-09-12T18:11:56.390Z,74.29
2022-09-12T18:14:29.226Z,74.66
2022-09-12T18:17:01.393Z,75.00
2022-09-12T18:20:02.693Z,75.49
2022-09-12T18:22:29.894Z,75.34
2022-09-12T18:24:57.009Z,75.78
2022-09-12T18:27:24.014Z,76.30
2022-09-12T18:30:10.311Z,76.83
2022-09-12T18:32:37.956Z,76.77
2022-09-12T18:35:06.104Z,77.16
2022-09-12T18:37:33.595Z,77.22
2022-09-12T18:40:00.551Z,77.93
2022-09-12T18:42:27.418Z,77.37
2022-09-12T18:44:54.627Z,78.25
2022-09-12T18:47:21.514Z,78.44
2022-09-12T18:49:48.665Z,78.64
2022-09-12T18:52:18.008Z,79.03
2022-09-12T18:54:45.742Z,79.28
2022-09-12T18:57:12.529Z,79.50
2022-09-12T18:59:39.296Z,79.49
2022-09-12T19:02:07.539Z,79.42
2022-09-12T19:04:34.410Z,79.14
2022-09-12T19:07:01.807Z,79.16
2022-09-12T19:09:29.212Z,79.00
2022-09-12T19:11:56.363Z,79.35
2022-09-12T19:14:26.183Z,79.29
2022-09-12T19:16:53.948Z,79.38
2022-09-12T19:19:21.661Z,79.39
2022-09-12T19:21:48.505Z,79.63
2022-09-12T19:24:16.739Z,80.39
2022-09-12T19:26:43.730Z,79.65
2022-09-12T19:29:12.295Z,79.98
2022-09-12T19:31:39.138Z,79.82
2022-09-12T19:34:07.911Z,79.46
2022-09-12T19:36:51.169Z,79.49
2022-09-12T19:39:19.974Z,79.73
2022-09-12T19:41:47.584Z,80.11
2022-09-12T19:44:14.748Z,80.26
2022-09-12T19:46:41.903Z,79.98
2022-09-12T19:49:11.583Z,79.71
2022-09-12T19:51:38.440Z,79.94
2022-09-12T19:54:05.780Z,80.04
2022-09-12T19:56:32.732Z,79.90
2022-09-12T19:58:59.591Z,79.86
2022-09-12T20:01:30.748Z,80.18
2022-09-12T20:03:58.792Z,80.22
2022-09-12T20:06:26.698Z,80.15
2022-09-12T20:08:53.862Z,80.34
2022-09-12T20:11:23.709Z,80.62
2022-09-12T20:13:51.259Z,80.78
2022-09-12T20:16:22.788Z,80.77
2022-09-12T20:18:56.197Z,80.73
2022-09-12T20:21:31.387Z,81.12
2022-09-12T20:24:01.948Z,80.76
2022-09-12T20:26:28.735Z,80.92
2022-09-12T20:28:56.243Z,80.86
2022-09-12T20:31:23.111Z,81.04
2022-09-12T20:33:52.067Z,81.47
2022-09-12T20:36:21.620Z,81.44
2022-09-12T20:38:51.879Z,81.66
2022-09-12T20:41:20.746Z,81.27
2022-09-12T20:43:52.520Z,81.57
2022-09-12T20:46:22.961Z,81.49
2022-09-12T20:48:51.365Z,81.55
2022-09-12T20:51:19.944Z,81.24
2022-09-12T20:53:47.531Z,81.08
2022-09-12T20:56:15.215Z,80.87
2022-09-12T20:58:44.483Z,80.73
2022-09-12T21:01:14.366Z,80.62
2022-09-12T21:03:42.946Z,80.07
2022-09-12T21:06:12.719Z,79.87
2022-09-12T21:08:39.722Z,79.72
2022-09-12T21:11:07.504Z,79.45
2022-09-12T21:13:34.946Z,79.54
2022-09-12T21:16:08.165Z,79.39
2022-09-12T21:18:36.163Z,79.57
2022-09-12T21:21:04.583Z,79.48
2022-09-12T21:23:32.181Z,79.13
2022-09-12T21:26:00.183Z,78.70
2022-09-12T21:28:27.361Z,78.21
2022-09-12T21:30:54.601Z,76.05
2022-09-12T21:33:22.251Z,75.65
2022-09-12T21:35:50.240Z,75.45
2022-09-12T21:38:18.935Z,75.34
2022-09-12T21:40:47.216Z,75.80
2022-09-12T21:43:14.675Z,76.09
2022-09-12T21:45:41.523Z,76.39
2022-09-12T21:48:08.781Z,76.60
2022-09-12T21:50:35.852Z,76.93
2022-09-12T21:53:02.705Z,77.00
2022-09-12T21:55:29.933Z,77.02
2022-09-12T21:57:56.766Z,76.90
2022-09-12T22:00:24.118Z,77.39
2022-09-12T22:02:51.474Z,77.43
2022-09-12T22:05:20.511Z,77.29
2022-09-12T22:07:47.656Z,77.32
2022-09-12T22:10:15.515Z,77.42
2022-09-12T22:12:46.153Z,77.17
2022-09-12T22:15:39.076Z,76.77
2022-09-12T22:18:01.841Z,76.95
2022-09-12T22:20:28.766Z,76.75
2022-09-12T22:23:13.992Z,76.72
2022-09-12T22:25:41.232Z,76.74
2022-09-12T22:28:08.074Z,76.72
2022-09-12T22:30:38.842Z,76.57
2022-09-12T22:33:09.192Z,76.66
2022-09-12T22:35:39.307Z,76.54
2022-09-12T22:38:06.512Z,76.38
2022-09-12T22:40:33.428Z,75.93
2022-09-12T22:43:03.521Z,76.28
2022-09-12T22:45:30.571Z,76.21
2022-09-12T22:48:00.749Z,76.13
2022-09-12T22:50:28.376Z,76.05
2022-09-12T22:52:58.064Z,75.73
2022-09-12T22:55:25.073Z,75.64
2022-09-12T22:57:52.271Z,75.68
2022-09-12T23:00:20.856Z,75.65
2022-09-12T23:02:47.875Z,75.89
2022-09-12T23:05:15.211Z,76.20
2022-09-12T23:07:42.434Z,76.33
2022-09-12T23:10:11.164Z,76.49
2022-09-12T23:12:38.416Z,76.53
2022-09-12T23:15:08.328Z,76.81
2022-09-12T23:17:35.236Z,76.74
2022-09-12T23:20:05.567Z,77.08
2022-09-12T23:22:32.491Z,77.21
2022-09-12T23:25:02.330Z,77.57
2022-09-12T23:27:30.501Z,77.53
2022-09-12T23:29:58.527Z,77.68
2022-09-12T23:32:26.626Z,77.86
2022-09-12T23:34:53.778Z,77.81
2022-09-12T23:37:21.908Z,77.91
2022-09-12T23:39:49.963Z,77.88
2022-09-12T23:42:19.910Z,77.80
2022-09-12T23:44:46.894Z,78.06
2022-09-12T23:47:18.186Z,78.03
2022-09-12T23:49:46.407Z,78.06
2022-09-12T23:52:14.964Z,78.08
2022-09-12T23:54:42.002Z,78.25
2022-09-12T23:57:10.713Z,78.39
2022-09-12T23:59:37.958Z,78.61
